sensor_id;sensor_type;location;lat;lon;timestamp;P1;durP1;ratioP1;P2;durP2;ratioP2
72132;SDS011;60008;50.826;6.896;2023-07-31T00:00:14;4.95;;;1.77;;
72132;SDS011;60008;50.826;6.896;2023-07-31T00:03:06;5.55;;;1.92;;
72132;SDS011;60008;50.826;6.896;2023-07-31T00:05:51;11.00;;;2.15;;
72132;SDS011;60008;50.826;6.896;2023-07-31T00:08:43;4.57;;;1.60;;
72132;SDS011;60008;50.826;6.896;2023-07-31T00:11:28;4.03;;;1.08;;
72132;SDS011;60008;50.826;6.896;2023-07-31T00:14:20;6.13;;;1.90;;
72132;SDS011;60008;50.826;6.896;2023-07-31T00:17:05;5.70;;;1.70;;
72132;SDS011;60008;50.826;6.896;2023-07-31T00:19:57;6.13;;;1.50;;
72132;SDS011;60008;50.826;6.896;2023-07-31T00:22:42;4.00;;;1.40;;
72132;SDS011;60008;50.826;6.896;2023-07-31T00:25:34;3.80;;;1.40;;
72132;SDS011;60008;50.826;6.896;2023-07-31T00:28:19;3.22;;;1.17;;
72132;SDS011;60008;50.826;6.896;2023-07-31T00:31:11;6.65;;;1.00;;
72132;SDS011;60008;50.826;6.896;2023-07-31T00:33:56;3.50;;;1.33;;
72132;SDS011;60008;50.826;6.896;2023-07-31T00:36:48;4.67;;;1.47;;
72132;SDS011;60008;50.826;6.896;2023-07-31T00:39:33;3.15;;;1.10;;
72132;SDS011;60008;50.826;6.896;2023-07-31T00:42:25;3.65;;;1.30;;
72132;SDS011;60008;50.826;6.896;2023-07-31T00:45:10;4.80;;;1.40;;
72132;SDS011;60008;50.826;6.896;2023-07-31T00:48:01;5.82;;;1.30;;
72132;SDS011;60008;50.826;6.896;2023-07-31T00:50:46;2.23;;;0.90;;
72132;SDS011;60008;50.826;6.896;2023-07-31T00:53:38;3.17;;;1.08;;
72132;SDS011;60008;50.826;6.896;2023-07-31T00:56:25;3.05;;;1.10;;
72132;SDS011;60008;50.826;6.896;2023-07-31T00:59:17;4.55;;;1.20;;
72132;SDS011;60008;50.826;6.896;2023-07-31T01:02:03;5.65;;;1.40;;
72132;SDS011;60008;50.826;6.896;2023-07-31T01:04:55;5.93;;;1.13;;
72132;SDS011;60008;50.826;6.896;2023-07-31T01:08:00;5.20;;;1.25;;
72132;SDS011;60008;50.826;6.896;2023-07-31T01:11:02;3.00;;;1.10;;
72132;SDS011;60008;50.826;6.896;2023-07-31T01:14:06;3.40;;;1.13;;
72132;SDS011;60008;50.826;6.896;2023-07-31T01:16:58;4.15;;;1.35;;
72132;SDS011;60008;50.826;6.896;2023-07-31T01:19:43;6.10;;;1.47;;
72132;SDS011;60008;50.826;6.896;2023-07-31T01:26:11;7.90;;;1.10;;
72132;SDS011;60008;50.826;6.896;2023-07-31T01:29:12;4.93;;;0.90;;
72132;SDS011;60008;50.826;6.896;2023-07-31T01:32:06;6.07;;;1.20;;
72132;SDS011;60008;50.826;6.896;2023-07-31T01:34:59;4.30;;;1.07;;
72132;SDS011;60008;50.826;6.896;2023-07-31T01:37:45;4.03;;;1.10;;
72132;SDS011;60008;50.826;6.896;2023-07-31T01:40:37;5.63;;;1.17;;
72132;SDS011;60008;50.826;6.896;2023-07-31T01:43:22;4.63;;;1.05;;
72132;SDS011;60008;50.826;6.896;2023-07-31T01:46:15;5.13;;;1.10;;
72132;SDS011;60008;50.826;6.896;2023-07-31T01:49:00;4.13;;;1.20;;
72132;SDS011;60008;50.826;6.896;2023-07-31T01:51:52;2.83;;;1.10;;
72132;SDS011;60008;50.826;6.896;2023-07-31T01:54:37;3.35;;;0.63;;
72132;SDS011;60008;50.826;6.896;2023-07-31T01:57:28;3.50;;;1.05;;
72132;SDS011;60008;50.826;6.896;2023-07-31T02:00:13;4.28;;;1.05;;
72132;SDS011;60008;50.826;6.896;2023-07-31T02:03:05;1.90;;;0.60;;
72132;SDS011;60008;50.826;6.896;2023-07-31T02:05:57;3.22;;;1.20;;
72132;SDS011;60008;50.826;6.896;2023-07-31T02:08:48;3.28;;;1.10;;
72132;SDS011;60008;50.826;6.896;2023-07-31T02:11:46;4.13;;;1.17;;
72132;SDS011;60008;50.826;6.896;2023-07-31T02:14:31;5.95;;;1.42;;
72132;SDS011;60008;50.826;6.896;2023-07-31T02:17:23;2.73;;;1.10;;
72132;SDS011;60008;50.826;6.896;2023-07-31T02:20:08;3.55;;;1.17;;
72132;SDS011;60008;50.826;6.896;2023-07-31T02:23:01;4.47;;;1.15;;
72132;SDS011;60008;50.826;6.896;2023-07-31T02:25:47;7.32;;;1.52;;
72132;SDS011;60008;50.826;6.896;2023-07-31T02:28:39;3.92;;;1.48;;
72132;SDS011;60008;50.826;6.896;2023-07-31T02:31:34;4.80;;;1.07;;
72132;SDS011;60008;50.826;6.896;2023-07-31T02:34:25;3.25;;;1.10;;
72132;SDS011;60008;50.826;6.896;2023-07-31T02:37:16;5.10;;;1.45;;
72132;SDS011;60008;50.826;6.896;2023-07-31T02:40:07;10.05;;;1.73;;
72132;SDS011;60008;50.826;6.896;2023-07-31T02:42:53;9.10;;;1.30;;
72132;SDS011;60008;50.826;6.896;2023-07-31T02:45:44;8.60;;;1.87;;
72132;SDS011;60008;50.826;6.896;2023-07-31T02:48:35;5.28;;;1.30;;
72132;SDS011;60008;50.826;6.896;2023-07-31T02:51:27;4.75;;;1.20;;
72132;SDS011;60008;50.826;6.896;2023-07-31T02:54:12;5.20;;;1.27;;
72132;SDS011;60008;50.826;6.896;2023-07-31T02:57:03;4.25;;;1.50;;
72132;SDS011;60008;50.826;6.896;2023-07-31T02:59:55;5.33;;;1.70;;
72132;SDS011;60008;50.826;6.896;2023-07-31T03:02:47;6.40;;;1.30;;
72132;SDS011;60008;50.826;6.896;2023-07-31T03:05:44;6.25;;;1.70;;
72132;SDS011;60008;50.826;6.896;2023-07-31T03:08:29;4.47;;;1.42;;
72132;SDS011;60008;50.826;6.896;2023-07-31T03:11:21;4.90;;;1.80;;
72132;SDS011;60008;50.826;6.896;2023-07-31T03:14:06;2.97;;;1.00;;
72132;SDS011;60008;50.826;6.896;2023-07-31T03:17:01;7.63;;;1.52;;
72132;SDS011;60008;50.826;6.896;2023-07-31T03:19:53;6.60;;;1.50;;
72132;SDS011;60008;50.826;6.896;2023-07-31T03:22:44;5.72;;;1.55;;
72132;SDS011;60008;50.826;6.896;2023-07-31T03:25:29;5.57;;;1.45;;
72132;SDS011;60008;50.826;6.896;2023-07-31T03:28:20;3.77;;;1.47;;
72132;SDS011;60008;50.826;6.896;2023-07-31T03:31:05;6.72;;;2.10;;
72132;SDS011;60008;50.826;6.896;2023-07-31T03:33:56;7.38;;;1.60;;
72132;SDS011;60008;50.826;6.896;2023-07-31T03:36:48;5.03;;;1.50;;
72132;SDS011;60008;50.826;6.896;2023-07-31T03:39:39;6.97;;;1.90;;
72132;SDS011;60008;50.826;6.896;2023-07-31T03:42:31;5.83;;;1.30;;
72132;SDS011;60008;50.826;6.896;2023-07-31T03:45:16;5.25;;;1.45;;
72132;SDS011;60008;50.826;6.896;2023-07-31T03:48:07;4.53;;;1.65;;
72132;SDS011;60008;50.826;6.896;2023-07-31T03:50:53;6.65;;;1.60;;
72132;SDS011;60008;50.826;6.896;2023-07-31T03:53:45;3.53;;;1.55;;
72132;SDS011;60008;50.826;6.896;2023-07-31T03:56:30;4.00;;;1.67;;
72132;SDS011;60008;50.826;6.896;2023-07-31T03:59:22;4.28;;;1.58;;
72132;SDS011;60008;50.826;6.896;2023-07-31T04:02:07;5.43;;;1.50;;
72132;SDS011;60008;50.826;6.896;2023-07-31T04:04:59;7.47;;;1.63;;
72132;SDS011;60008;50.826;6.896;2023-07-31T04:07:51;3.60;;;1.33;;
72132;SDS011;60008;50.826;6.896;2023-07-31T04:10:42;7.13;;;1.70;;
72132;SDS011;60008;50.826;6.896;2023-07-31T04:13:34;7.10;;;1.80;;
72132;SDS011;60008;50.826;6.896;2023-07-31T04:16:25;7.53;;;1.83;;
72132;SDS011;60008;50.826;6.896;2023-07-31T04:19:16;4.57;;;1.52;;
72132;SDS011;60008;50.826;6.896;2023-07-31T04:22:01;5.38;;;1.83;;
72132;SDS011;60008;50.826;6.896;2023-07-31T04:24:53;6.70;;;1.90;;
72132;SDS011;60008;50.826;6.896;2023-07-31T04:27:44;5.85;;;1.95;;
72132;SDS011;60008;50.826;6.896;2023-07-31T04:30:29;3.70;;;1.38;;
72132;SDS011;60008;50.826;6.896;2023-07-31T04:33:21;6.45;;;2.00;;
72132;SDS011;60008;50.826;6.896;2023-07-31T04:36:13;6.80;;;1.83;;
72132;SDS011;60008;50.826;6.896;2023-07-31T04:38:58;9.17;;;1.80;;
72132;SDS011;60008;50.826;6.896;2023-07-31T04:41:50;5.53;;;1.90;;
72132;SDS011;60008;50.826;6.896;2023-07-31T04:44:42;8.90;;;1.92;;
72132;SDS011;60008;50.826;6.896;2023-07-31T04:47:27;3.85;;;1.63;;
72132;SDS011;60008;50.826;6.896;2023-07-31T04:50:19;6.53;;;1.77;;
72132;SDS011;60008;50.826;6.896;2023-07-31T04:53:04;5.87;;;1.70;;
72132;SDS011;60008;50.826;6.896;2023-07-31T04:55:55;6.57;;;1.92;;
72132;SDS011;60008;50.826;6.896;2023-07-31T04:58:47;4.88;;;1.70;;
72132;SDS011;60008;50.826;6.896;2023-07-31T05:01:32;6.53;;;2.03;;
72132;SDS011;60008;50.826;6.896;2023-07-31T05:04:24;4.65;;;1.80;;
72132;SDS011;60008;50.826;6.896;2023-07-31T05:07:16;5.10;;;1.80;;
72132;SDS011;60008;50.826;6.896;2023-07-31T05:10:08;5.30;;;1.80;;
72132;SDS011;60008;50.826;6.896;2023-07-31T05:12:53;5.13;;;1.77;;
72132;SDS011;60008;50.826;6.896;2023-07-31T05:15:45;5.95;;;1.92;;
72132;SDS011;60008;50.826;6.896;2023-07-31T05:18:30;7.03;;;2.00;;
72132;SDS011;60008;50.826;6.896;2023-07-31T05:21:22;4.77;;;2.00;;
72132;SDS011;60008;50.826;6.896;2023-07-31T05:24:14;4.00;;;1.73;;
72132;SDS011;60008;50.826;6.896;2023-07-31T05:26:59;3.83;;;1.70;;
72132;SDS011;60008;50.826;6.896;2023-07-31T05:29:50;6.28;;;1.80;;
72132;SDS011;60008;50.826;6.896;2023-07-31T05:32:35;5.80;;;2.22;;
72132;SDS011;60008;50.826;6.896;2023-07-31T05:35:26;4.57;;;1.90;;
72132;SDS011;60008;50.826;6.896;2023-07-31T05:38:12;3.70;;;1.75;;
72132;SDS011;60008;50.826;6.896;2023-07-31T05:41:03;5.55;;;1.95;;
72132;SDS011;60008;50.826;6.896;2023-07-31T05:43:48;5.22;;;1.90;;
72132;SDS011;60008;50.826;6.896;2023-07-31T05:46:39;4.72;;;1.73;;
72132;SDS011;60008;50.826;6.896;2023-07-31T05:49:24;5.13;;;1.90;;
72132;SDS011;60008;50.826;6.896;2023-07-31T05:52:16;6.07;;;1.75;;
72132;SDS011;60008;50.826;6.896;2023-07-31T05:55:01;7.03;;;2.22;;
72132;SDS011;60008;50.826;6.896;2023-07-31T05:57:54;4.57;;;1.90;;
72132;SDS011;60008;50.826;6.896;2023-07-31T06:00:39;4.90;;;1.73;;
72132;SDS011;60008;50.826;6.896;2023-07-31T06:03:32;5.53;;;1.60;;
72132;SDS011;60008;50.826;6.896;2023-07-31T06:06:23;7.72;;;1.67;;
72132;SDS011;60008;50.826;6.896;2023-07-31T06:09:14;4.93;;;1.70;;
72132;SDS011;60008;50.826;6.896;2023-07-31T06:11:59;10.20;;;1.77;;
72132;SDS011;60008;50.826;6.896;2023-07-31T06:14:51;4.72;;;1.90;;
72132;SDS011;60008;50.826;6.896;2023-07-31T06:17:36;5.97;;;1.83;;
72132;SDS011;60008;50.826;6.896;2023-07-31T06:20:28;5.15;;;1.15;;
72132;SDS011;60008;50.826;6.896;2023-07-31T06:23:13;4.53;;;1.80;;
72132;SDS011;60008;50.826;6.896;2023-07-31T06:26:05;9.73;;;2.00;;
72132;SDS011;60008;50.826;6.896;2023-07-31T06:28:50;7.60;;;2.00;;
72132;SDS011;60008;50.826;6.896;2023-07-31T06:31:41;5.60;;;1.83;;
72132;SDS011;60008;50.826;6.896;2023-07-31T06:34:26;4.80;;;1.88;;
72132;SDS011;60008;50.826;6.896;2023-07-31T06:37:18;5.30;;;2.05;;
72132;SDS011;60008;50.826;6.896;2023-07-31T06:40:03;4.20;;;2.00;;
72132;SDS011;60008;50.826;6.896;2023-07-31T06:42:56;9.68;;;2.20;;
72132;SDS011;60008;50.826;6.896;2023-07-31T06:45:41;8.77;;;2.10;;
72132;SDS011;60008;50.826;6.896;2023-07-31T06:48:33;7.07;;;2.15;;
72132;SDS011;60008;50.826;6.896;2023-07-31T06:51:18;5.13;;;1.98;;
72132;SDS011;60008;50.826;6.896;2023-07-31T06:54:10;4.30;;;1.83;;
72132;SDS011;60008;50.826;6.896;2023-07-31T06:56:55;8.80;;;1.92;;
72132;SDS011;60008;50.826;6.896;2023-07-31T06:59:47;5.13;;;1.70;;
72132;SDS011;60008;50.826;6.896;2023-07-31T07:02:39;4.45;;;1.92;;
72132;SDS011;60008;50.826;6.896;2023-07-31T07:05:24;5.47;;;2.10;;
72132;SDS011;60008;50.826;6.896;2023-07-31T07:08:16;5.80;;;1.98;;
72132;SDS011;60008;50.826;6.896;2023-07-31T07:11:15;7.38;;;2.22;;
72132;SDS011;60008;50.826;6.896;2023-07-31T07:14:00;5.77;;;1.93;;
72132;SDS011;60008;50.826;6.896;2023-07-31T07:16:52;7.28;;;2.25;;
72132;SDS011;60008;50.826;6.896;2023-07-31T07:19:40;6.65;;;1.80;;
72132;SDS011;60008;50.826;6.896;2023-07-31T07:22:32;5.72;;;1.70;;
72132;SDS011;60008;50.826;6.896;2023-07-31T07:25:17;5.55;;;1.80;;
72132;SDS011;60008;50.826;6.896;2023-07-31T07:28:09;7.07;;;2.13;;
72132;SDS011;60008;50.826;6.896;2023-07-31T07:30:54;7.55;;;2.08;;
72132;SDS011;60008;50.826;6.896;2023-07-31T07:33:46;7.00;;;2.10;;
72132;SDS011;60008;50.826;6.896;2023-07-31T07:36:31;5.60;;;2.03;;
72132;SDS011;60008;50.826;6.896;2023-07-31T07:39:23;6.28;;;1.52;;
72132;SDS011;60008;50.826;6.896;2023-07-31T07:42:16;6.83;;;2.87;;
72132;SDS011;60008;50.826;6.896;2023-07-31T07:45:08;4.63;;;1.77;;
72132;SDS011;60008;50.826;6.896;2023-07-31T07:48:00;6.15;;;1.90;;
72132;SDS011;60008;50.826;6.896;2023-07-31T07:50:45;6.72;;;1.88;;
72132;SDS011;60008;50.826;6.896;2023-07-31T07:53:37;4.53;;;2.00;;
72132;SDS011;60008;50.826;6.896;2023-07-31T07:56:23;5.20;;;1.90;;
72132;SDS011;60008;50.826;6.896;2023-07-31T07:59:15;5.53;;;1.88;;
72132;SDS011;60008;50.826;6.896;2023-07-31T08:02:00;4.60;;;2.00;;
72132;SDS011;60008;50.826;6.896;2023-07-31T08:04:52;7.50;;;2.28;;
72132;SDS011;60008;50.826;6.896;2023-07-31T08:07:44;4.10;;;1.45;;
72132;SDS011;60008;50.826;6.896;2023-07-31T08:10:36;6.60;;;1.70;;
72132;SDS011;60008;50.826;6.896;2023-07-31T08:13:21;5.50;;;1.88;;
72132;SDS011;60008;50.826;6.896;2023-07-31T08:16:13;4.45;;;1.60;;
72132;SDS011;60008;50.826;6.896;2023-07-31T08:18:58;4.35;;;1.58;;
72132;SDS011;60008;50.826;6.896;2023-07-31T08:21:50;6.82;;;1.60;;
72132;SDS011;60008;50.826;6.896;2023-07-31T08:24:35;3.97;;;1.40;;
72132;SDS011;60008;50.826;6.896;2023-07-31T08:27:27;4.50;;;1.48;;
72132;SDS011;60008;50.826;6.896;2023-07-31T08:30:12;3.10;;;1.35;;
72132;SDS011;60008;50.826;6.896;2023-07-31T08:33:06;6.88;;;1.52;;
72132;SDS011;60008;50.826;6.896;2023-07-31T08:35:57;4.95;;;1.50;;
72132;SDS011;60008;50.826;6.896;2023-07-31T08:38:50;6.27;;;1.33;;
72132;SDS011;60008;50.826;6.896;2023-07-31T08:41:38;5.38;;;1.85;;
72132;SDS011;60008;50.826;6.896;2023-07-31T08:44:33;3.95;;;1.40;;
72132;SDS011;60008;50.826;6.896;2023-07-31T08:47:25;5.22;;;1.60;;
72132;SDS011;60008;50.826;6.896;2023-07-31T08:50:19;3.88;;;1.65;;
72132;SDS011;60008;50.826;6.896;2023-07-31T08:53:11;6.00;;;1.60;;
72132;SDS011;60008;50.826;6.896;2023-07-31T08:56:03;7.55;;;1.80;;
72132;SDS011;60008;50.826;6.896;2023-07-31T08:58:51;5.05;;;2.05;;
72132;SDS011;60008;50.826;6.896;2023-07-31T09:01:48;9.32;;;2.03;;
72132;SDS011;60008;50.826;6.896;2023-07-31T09:04:35;6.13;;;1.45;;
72132;SDS011;60008;50.826;6.896;2023-07-31T09:07:26;3.83;;;1.57;;
72132;SDS011;60008;50.826;6.896;2023-07-31T09:10:18;6.15;;;1.60;;
72132;SDS011;60008;50.826;6.896;2023-07-31T09:13:10;3.78;;;1.42;;
72132;SDS011;60008;50.826;6.896;2023-07-31T09:16:01;3.60;;;1.38;;
72132;SDS011;60008;50.826;6.896;2023-07-31T09:18:53;5.03;;;1.50;;
72132;SDS011;60008;50.826;6.896;2023-07-31T09:21:47;2.50;;;1.17;;
72132;SDS011;60008;50.826;6.896;2023-07-31T09:24:39;6.20;;;1.30;;
72132;SDS011;60008;50.826;6.896;2023-07-31T09:27:25;3.28;;;1.30;;
72132;SDS011;60008;50.826;6.896;2023-07-31T09:30:17;2.53;;;1.30;;
72132;SDS011;60008;50.826;6.896;2023-07-31T09:33:09;6.30;;;1.10;;
72132;SDS011;60008;50.826;6.896;2023-07-31T09:35:55;2.93;;;1.20;;
72132;SDS011;60008;50.826;6.896;2023-07-31T09:38:46;3.40;;;1.40;;
72132;SDS011;60008;50.826;6.896;2023-07-31T09:41:31;5.25;;;1.40;;
72132;SDS011;60008;50.826;6.896;2023-07-31T09:44:38;3.13;;;1.20;;
72132;SDS011;60008;50.826;6.896;2023-07-31T09:47:32;3.20;;;1.40;;
72132;SDS011;60008;50.826;6.896;2023-07-31T09:50:19;3.40;;;1.13;;
72132;SDS011;60008;50.826;6.896;2023-07-31T09:53:11;2.67;;;1.33;;
72132;SDS011;60008;50.826;6.896;2023-07-31T09:56:03;3.33;;;1.10;;
72132;SDS011;60008;50.826;6.896;2023-07-31T09:58:56;5.43;;;1.50;;
72132;SDS011;60008;50.826;6.896;2023-07-31T10:01:42;4.97;;;1.17;;
72132;SDS011;60008;50.826;6.896;2023-07-31T10:04:34;3.60;;;1.10;;
72132;SDS011;60008;50.826;6.896;2023-07-31T10:07:38;3.08;;;1.17;;
72132;SDS011;60008;50.826;6.896;2023-07-31T10:10:43;2.83;;;1.08;;
72132;SDS011;60008;50.826;6.896;2023-07-31T10:13:35;3.17;;;1.42;;
72132;SDS011;60008;50.826;6.896;2023-07-31T10:16:21;3.03;;;1.25;;
72132;SDS011;60008;50.826;6.896;2023-07-31T10:19:13;3.33;;;0.67;;
72132;SDS011;60008;50.826;6.896;2023-07-31T10:21:59;3.35;;;1.40;;
72132;SDS011;60008;50.826;6.896;2023-07-31T10:24:51;4.38;;;1.40;;
72132;SDS011;60008;50.826;6.896;2023-07-31T10:27:39;3.28;;;1.35;;
72132;SDS011;60008;50.826;6.896;2023-07-31T10:30:32;3.92;;;1.13;;
72132;SDS011;60008;50.826;6.896;2023-07-31T10:33:19;4.37;;;1.40;;
72132;SDS011;60008;50.826;6.896;2023-07-31T10:36:18;3.08;;;1.30;;
72132;SDS011;60008;50.826;6.896;2023-07-31T10:39:04;2.70;;;1.27;;
72132;SDS011;60008;50.826;6.896;2023-07-31T10:42:37;4.13;;;1.40;;
72132;SDS011;60008;50.826;6.896;2023-07-31T10:45:31;6.30;;;1.25;;
72132;SDS011;60008;50.826;6.896;2023-07-31T10:48:24;3.53;;;1.40;;
72132;SDS011;60008;50.826;6.896;2023-07-31T10:51:18;2.97;;;1.15;;
72132;SDS011;60008;50.826;6.896;2023-07-31T10:54:13;3.30;;;1.08;;
72132;SDS011;60008;50.826;6.896;2023-07-31T10:57:19;3.67;;;0.95;;
72132;SDS011;60008;50.826;6.896;2023-07-31T11:00:18;4.22;;;0.82;;
72132;SDS011;60008;50.826;6.896;2023-07-31T11:03:18;4.37;;;0.73;;
72132;SDS011;60008;50.826;6.896;2023-07-31T11:06:06;2.85;;;0.90;;
72132;SDS011;60008;50.826;6.896;2023-07-31T11:09:07;2.58;;;0.90;;
72132;SDS011;60008;50.826;6.896;2023-07-31T11:11:59;1.48;;;0.60;;
72132;SDS011;60008;50.826;6.896;2023-07-31T11:14:57;1.52;;;0.70;;
72132;SDS011;60008;50.826;6.896;2023-07-31T11:17:49;3.20;;;0.70;;
72132;SDS011;60008;50.826;6.896;2023-07-31T11:20:35;1.45;;;0.57;;
72132;SDS011;60008;50.826;6.896;2023-07-31T11:23:30;1.40;;;0.60;;
72132;SDS011;60008;50.826;6.896;2023-07-31T11:26:15;0.95;;;0.43;;
72132;SDS011;60008;50.826;6.896;2023-07-31T11:29:12;3.53;;;0.90;;
72132;SDS011;60008;50.826;6.896;2023-07-31T11:31:57;1.50;;;0.60;;
72132;SDS011;60008;50.826;6.896;2023-07-31T11:34:55;1.15;;;0.47;;
72132;SDS011;60008;50.826;6.896;2023-07-31T11:37:41;1.00;;;0.50;;
72132;SDS011;60008;50.826;6.896;2023-07-31T11:40:41;1.30;;;0.60;;
72132;SDS011;60008;50.826;6.896;2023-07-31T11:43:26;1.10;;;0.50;;
72132;SDS011;60008;50.826;6.896;2023-07-31T11:46:18;1.63;;;0.60;;
72132;SDS011;60008;50.826;6.896;2023-07-31T11:49:04;1.00;;;0.40;;
72132;SDS011;60008;50.826;6.896;2023-07-31T11:51:55;1.73;;;0.60;;
72132;SDS011;60008;50.826;6.896;2023-07-31T11:54:41;1.30;;;0.45;;
72132;SDS011;60008;50.826;6.896;2023-07-31T11:57:32;1.90;;;0.63;;
72132;SDS011;60008;50.826;6.896;2023-07-31T12:00:18;1.13;;;0.50;;
72132;SDS011;60008;50.826;6.896;2023-07-31T12:03:10;1.17;;;0.50;;
72132;SDS011;60008;50.826;6.896;2023-07-31T12:06:02;1.35;;;0.60;;
72132;SDS011;60008;50.826;6.896;2023-07-31T12:09:00;1.20;;;0.50;;
72132;SDS011;60008;50.826;6.896;2023-07-31T12:11:52;1.35;;;0.60;;
72132;SDS011;60008;50.826;6.896;2023-07-31T12:14:44;3.73;;;0.70;;
72132;SDS011;60008;50.826;6.896;2023-07-31T12:17:29;1.58;;;0.60;;
72132;SDS011;60008;50.826;6.896;2023-07-31T12:20:20;1.88;;;0.70;;
72132;SDS011;60008;50.826;6.896;2023-07-31T12:23:05;3.45;;;0.95;;
72132;SDS011;60008;50.826;6.896;2023-07-31T12:26:07;3.08;;;1.00;;
72132;SDS011;60008;50.826;6.896;2023-07-31T12:28:54;1.60;;;0.83;;
72132;SDS011;60008;50.826;6.896;2023-07-31T12:31:45;2.63;;;1.00;;
72132;SDS011;60008;50.826;6.896;2023-07-31T12:34:42;3.78;;;0.80;;
72132;SDS011;60008;50.826;6.896;2023-07-31T12:37:28;2.42;;;0.93;;
72132;SDS011;60008;50.826;6.896;2023-07-31T12:40:36;2.65;;;0.98;;
72132;SDS011;60008;50.826;6.896;2023-07-31T12:43:36;3.77;;;1.20;;
72132;SDS011;60008;50.826;6.896;2023-07-31T12:46:28;1.70;;;0.88;;
72132;SDS011;60008;50.826;6.896;2023-07-31T12:49:20;2.80;;;1.20;;
72132;SDS011;60008;50.826;6.896;2023-07-31T12:52:05;4.70;;;1.23;;
72132;SDS011;60008;50.826;6.896;2023-07-31T12:54:57;3.10;;;1.40;;
72132;SDS011;60008;50.826;6.896;2023-07-31T12:57:42;3.40;;;1.70;;
72132;SDS011;60008;50.826;6.896;2023-07-31T13:00:34;3.15;;;1.45;;
72132;SDS011;60008;50.826;6.896;2023-07-31T13:03:26;3.13;;;1.50;;
72132;SDS011;60008;50.826;6.896;2023-07-31T13:06:12;4.35;;;1.60;;
72132;SDS011;60008;50.826;6.896;2023-07-31T13:09:03;3.40;;;1.85;;
72132;SDS011;60008;50.826;6.896;2023-07-31T13:11:49;3.17;;;1.80;;
72132;SDS011;60008;50.826;6.896;2023-07-31T13:14:40;4.32;;;1.60;;
72132;SDS011;60008;50.826;6.896;2023-07-31T13:17:25;3.35;;;1.52;;
72132;SDS011;60008;50.826;6.896;2023-07-31T13:20:17;4.80;;;1.60;;
72132;SDS011;60008;50.826;6.896;2023-07-31T13:23:02;2.70;;;1.55;;
72132;SDS011;60008;50.826;6.896;2023-07-31T13:25:54;2.37;;;1.27;;
72132;SDS011;60008;50.826;6.896;2023-07-31T13:28:40;2.88;;;1.48;;
72132;SDS011;60008;50.826;6.896;2023-07-31T13:31:31;3.55;;;1.52;;
72132;SDS011;60008;50.826;6.896;2023-07-31T13:34:17;2.58;;;1.10;;
72132;SDS011;60008;50.826;6.896;2023-07-31T13:37:08;3.83;;;1.40;;
72132;SDS011;60008;50.826;6.896;2023-07-31T13:39:53;3.60;;;1.50;;
72132;SDS011;60008;50.826;6.896;2023-07-31T13:42:45;3.50;;;1.45;;
72132;SDS011;60008;50.826;6.896;2023-07-31T13:45:31;4.03;;;1.20;;
72132;SDS011;60008;50.826;6.896;2023-07-31T13:48:23;3.75;;;1.40;;
72132;SDS011;60008;50.826;6.896;2023-07-31T13:51:15;2.20;;;1.10;;
72132;SDS011;60008;50.826;6.896;2023-07-31T13:54:01;4.43;;;1.30;;
72132;SDS011;60008;50.826;6.896;2023-07-31T13:56:52;1.83;;;0.82;;
72132;SDS011;60008;50.826;6.896;2023-07-31T13:59:38;2.67;;;1.10;;
72132;SDS011;60008;50.826;6.896;2023-07-31T14:02:29;2.97;;;1.30;;
72132;SDS011;60008;50.826;6.896;2023-07-31T14:05:21;2.13;;;1.00;;
72132;SDS011;60008;50.826;6.896;2023-07-31T14:08:13;3.07;;;0.90;;
72132;SDS011;60008;50.826;6.896;2023-07-31T14:11:05;5.03;;;1.20;;
72132;SDS011;60008;50.826;6.896;2023-07-31T14:13:50;2.85;;;1.52;;
72132;SDS011;60008;50.826;6.896;2023-07-31T14:16:42;4.28;;;1.30;;
72132;SDS011;60008;50.826;6.896;2023-07-31T14:19:35;2.75;;;1.20;;
72132;SDS011;60008;50.826;6.896;2023-07-31T14:22:28;3.47;;;1.50;;
72132;SDS011;60008;50.826;6.896;2023-07-31T14:25:18;2.50;;;1.00;;
72132;SDS011;60008;50.826;6.896;2023-07-31T14:28:09;2.00;;;1.08;;
72132;SDS011;60008;50.826;6.896;2023-07-31T14:30:54;4.03;;;1.33;;
72132;SDS011;60008;50.826;6.896;2023-07-31T14:33:45;3.80;;;1.25;;
72132;SDS011;60008;50.826;6.896;2023-07-31T14:36:41;2.30;;;1.00;;
72132;SDS011;60008;50.826;6.896;2023-07-31T14:39:27;2.92;;;1.30;;
72132;SDS011;60008;50.826;6.896;2023-07-31T14:42:18;2.85;;;1.35;;
72132;SDS011;60008;50.826;6.896;2023-07-31T14:45:04;2.83;;;1.58;;
72132;SDS011;60008;50.826;6.896;2023-07-31T14:47:56;3.47;;;1.58;;
72132;SDS011;60008;50.826;6.896;2023-07-31T14:50:41;3.03;;;1.30;;
72132;SDS011;60008;50.826;6.896;2023-07-31T14:53:33;4.20;;;1.50;;
72132;SDS011;60008;50.826;6.896;2023-07-31T14:56:25;2.55;;;1.50;;
72132;SDS011;60008;50.826;6.896;2023-07-31T14:59:19;3.65;;;1.38;;
72132;SDS011;60008;50.826;6.896;2023-07-31T15:02:11;3.72;;;1.52;;
72132;SDS011;60008;50.826;6.896;2023-07-31T15:05:03;3.93;;;1.63;;
72132;SDS011;60008;50.826;6.896;2023-07-31T15:07:50;3.60;;;1.70;;
72132;SDS011;60008;50.826;6.896;2023-07-31T15:10:48;3.42;;;1.60;;
72132;SDS011;60008;50.826;6.896;2023-07-31T15:13:41;3.47;;;1.60;;
72132;SDS011;60008;50.826;6.896;2023-07-31T15:16:26;4.30;;;1.95;;
72132;SDS011;60008;50.826;6.896;2023-07-31T15:19:20;3.67;;;1.63;;
72132;SDS011;60008;50.826;6.896;2023-07-31T15:22:07;4.72;;;1.70;;
72132;SDS011;60008;50.826;6.896;2023-07-31T15:24:59;3.20;;;1.40;;
72132;SDS011;60008;50.826;6.896;2023-07-31T15:27:44;3.40;;;1.55;;
72132;SDS011;60008;50.826;6.896;2023-07-31T15:30:36;3.53;;;1.52;;
72132;SDS011;60008;50.826;6.896;2023-07-31T15:33:22;2.93;;;1.43;;
72132;SDS011;60008;50.826;6.896;2023-07-31T15:36:13;2.65;;;1.38;;
72132;SDS011;60008;50.826;6.896;2023-07-31T15:38:58;3.08;;;1.27;;
72132;SDS011;60008;50.826;6.896;2023-07-31T15:41:50;3.38;;;1.55;;
72132;SDS011;60008;50.826;6.896;2023-07-31T15:44:35;3.35;;;1.40;;
72132;SDS011;60008;50.826;6.896;2023-07-31T15:47:27;2.97;;;1.40;;
72132;SDS011;60008;50.826;6.896;2023-07-31T15:50:13;3.25;;;1.50;;
72132;SDS011;60008;50.826;6.896;2023-07-31T15:53:04;4.07;;;1.50;;
72132;SDS011;60008;50.826;6.896;2023-07-31T15:55:49;2.80;;;1.42;;
72132;SDS011;60008;50.826;6.896;2023-07-31T15:58:40;4.60;;;1.42;;
72132;SDS011;60008;50.826;6.896;2023-07-31T16:01:26;3.27;;;1.40;;
72132;SDS011;60008;50.826;6.896;2023-07-31T16:04:17;4.50;;;1.77;;
72132;SDS011;60008;50.826;6.896;2023-07-31T16:07:02;6.95;;;1.52;;
72132;SDS011;60008;50.826;6.896;2023-07-31T16:10:00;3.20;;;1.30;;
72132;SDS011;60008;50.826;6.896;2023-07-31T16:12:52;2.40;;;1.20;;
72132;SDS011;60008;50.826;6.896;2023-07-31T16:15:37;2.57;;;1.17;;
72132;SDS011;60008;50.826;6.896;2023-07-31T16:18:29;2.33;;;1.17;;
72132;SDS011;60008;50.826;6.896;2023-07-31T16:21:21;3.00;;;1.40;;
72132;SDS011;60008;50.826;6.896;2023-07-31T16:24:07;3.75;;;1.33;;
72132;SDS011;60008;50.826;6.896;2023-07-31T16:26:58;3.60;;;1.48;;
72132;SDS011;60008;50.826;6.896;2023-07-31T16:29:44;3.80;;;1.30;;
72132;SDS011;60008;50.826;6.896;2023-07-31T16:32:35;4.28;;;1.30;;
72132;SDS011;60008;50.826;6.896;2023-07-31T16:35:21;4.63;;;1.70;;
72132;SDS011;60008;50.826;6.896;2023-07-31T16:38:12;3.45;;;1.50;;
72132;SDS011;60008;50.826;6.896;2023-07-31T16:41:03;4.22;;;1.70;;
72132;SDS011;60008;50.826;6.896;2023-07-31T16:43:50;2.93;;;1.43;;
72132;SDS011;60008;50.826;6.896;2023-07-31T16:46:42;3.28;;;1.55;;
72132;SDS011;60008;50.826;6.896;2023-07-31T16:49:33;5.05;;;1.70;;
72132;SDS011;60008;50.826;6.896;2023-07-31T16:52:18;4.75;;;1.52;;
72132;SDS011;60008;50.826;6.896;2023-07-31T16:55:10;4.07;;;1.40;;
72132;SDS011;60008;50.826;6.896;2023-07-31T16:57:55;4.30;;;1.60;;
72132;SDS011;60008;50.826;6.896;2023-07-31T17:00:47;5.65;;;1.75;;
72132;SDS011;60008;50.826;6.896;2023-07-31T17:03:33;5.68;;;1.67;;
72132;SDS011;60008;50.826;6.896;2023-07-31T17:06:25;3.53;;;1.55;;
72132;SDS011;60008;50.826;6.896;2023-07-31T17:09:24;3.35;;;1.50;;